Time;durP1;ratioP1;P1;durP2;ratioP2;P2;SDS_P1;SDS_P2;PMS_P1;PMS_P2;Temp;Humidity;BMP_temperature;BMP_pressure;BME280_temperature;BME280_humidity;BME280_pressure;Samples;Min_cycle;Max_cycle;Signal;HPM_P1;HPM_P2
2022/06/19 00:00:35;;;;;;;12.70;3.63;;;;;;;;;;6147834;23;20048;-48
2022/06/19 00:03:06;;;;;;;10.02;3.10;;;;;;;;;;6145348;23;20033;-45
2022/06/19 00:05:31;;;;;;;12.82;4.25;;;;;;;;;;6149155;23;20012;-45
2022/06/19 00:07:56;;;;;;;12.48;4.07;;;;;;;;;;6146983;23;20378;-46
2022/06/19 00:10:22;;;;;;;10.20;3.33;;;;;;;;;;6147378;23;20013;-47
2022/06/19 00:12:47;;;;;;;10.90;3.38;;;;;;;;;;6149734;23;20028;-44
2022/06/19 00:15:12;;;;;;;9.20;3.83;;;;;;;;;;6149647;23;20622;-47
2022/06/19 00:17:38;;;;;;;13.50;2.85;;;;;;;;;;6146452;23;20013;-45
2022/06/19 00:20:04;;;;;;;14.05;4.00;;;;;;;;;;6151277;23;20009;-45
2022/06/19 00:22:29;;;;;;;12.88;3.53;;;;;;;;;;6146245;23;20109;-44
2022/06/19 00:24:56;;;;;;;13.68;3.55;;;;;;;;;;6150533;23;20041;-45
2022/06/19 00:27:21;;;;;;;12.23;3.70;;;;;;;;;;6145571;23;20014;-46
2022/06/19 00:29:48;;;;;;;11.20;3.42;;;;;;;;;;6148368;23;20020;-45
2022/06/19 00:32:13;;;;;;;10.27;3.35;;;;;;;;;;6148305;23;20112;-46
2022/06/19 00:34:39;;;;;;;14.45;4.22;;;;;;;;;;6144586;23;20002;-44
2022/06/19 00:37:04;;;;;;;16.80;3.97;;;;;;;;;;6149935;23;20018;-45
2022/06/19 00:39:32;;;;;;;9.40;3.72;;;;;;;;;;6146169;23;20076;-44
2022/06/19 00:41:57;;;;;;;11.20;3.45;;;;;;;;;;6152809;23;20006;-45
2022/06/19 00:44:23;;;;;;;10.13;3.65;;;;;;;;;;6142470;23;20013;-44
2022/06/19 00:47:06;;;;;;;9.13;3.45;;;;;;;;;;6149446;23;20029;-45
2022/06/19 00:49:36;;;;;;;9.05;3.63;;;;;;;;;;6147262;23;20016;-43
2022/06/19 00:52:09;;;;;;;11.18;3.65;;;;;;;;;;6148503;23;20025;-44
2022/06/19 00:54:53;;;;;;;13.98;4.65;;;;;;;;;;6150862;23;20005;-47
2022/06/19 00:57:19;;;;;;;9.63;3.20;;;;;;;;;;6151164;23;20013;-43
2022/06/19 00:59:47;;;;;;;11.88;3.63;;;;;;;;;;6178748;23;20017;-43
2022/06/19 01:02:14;;;;;;;15.90;3.97;;;;;;;;;;6175343;23;20369;-44
2022/06/19 01:04:43;;;;;;;19.27;4.55;;;;;;;;;;6177997;23;20178;-48
2022/06/19 01:07:08;;;;;;;16.40;4.05;;;;;;;;;;6170840;23;20009;-44
2022/06/19 01:09:34;;;;;;;12.63;3.78;;;;;;;;;;6178773;23;20033;-48
2022/06/19 01:12:01;;;;;;;17.55;4.32;;;;;;;;;;6175176;23;20033;-46
2022/06/19 01:14:26;;;;;;;12.82;4.75;;;;;;;;;;6170906;23;20013;-45
2022/06/19 01:16:52;;;;;;;14.13;4.18;;;;;;;;;;6176050;23;20423;-45
2022/06/19 01:19:23;;;;;;;16.33;5.20;;;;;;;;;;6150074;23;20016;-45
2022/06/19 01:21:52;;;;;;;10.20;4.10;;;;;;;;;;6180915;23;20142;-43
2022/06/19 01:24:50;;;;;;;9.53;3.60;;;;;;;;;;6180009;23;20229;-44
2022/06/19 01:28:45;;;;;;;17.60;4.40;;;;;;;;;;6096152;23;20277;-48
2022/06/19 01:30:03;;;;;;;9.38;4.45;;;;;;;;;;6176240;23;20088;-48
2022/06/19 01:32:28;;;;;;;13.93;5.00;;;;;;;;;;6178920;23;20029;-47
2022/06/19 01:34:54;;;;;;;14.13;3.92;;;;;;;;;;6175941;23;20083;-48
2022/06/19 01:37:24;;;;;;;16.00;4.53;;;;;;;;;;6177920;23;20016;-44
2022/06/19 01:39:56;;;;;;;16.95;4.53;;;;;;;;;;6176254;23;20040;-43
2022/06/19 01:42:22;;;;;;;14.75;4.22;;;;;;;;;;6179057;23;20009;-45
2022/06/19 01:44:47;;;;;;;16.92;4.88;;;;;;;;;;6177044;23;20087;-47
2022/06/19 01:47:14;;;;;;;17.00;5.18;;;;;;;;;;6176544;23;20129;-46
2022/06/19 01:49:41;;;;;;;11.10;4.45;;;;;;;;;;6176012;23;20028;-44
2022/06/19 01:52:07;;;;;;;14.60;4.97;;;;;;;;;;6177999;23;20021;-47
2022/06/19 01:54:35;;;;;;;15.65;4.57;;;;;;;;;;6176756;23;20090;-45
2022/06/19 01:57:01;;;;;;;17.02;5.45;;;;;;;;;;6177688;23;20020;-47
2022/06/19 01:59:28;;;;;;;16.00;5.13;;;;;;;;;;6168173;23;20013;-44
2022/06/19 02:01:54;;;;;;;13.48;4.30;;;;;;;;;;6177289;23;20017;-45
2022/06/19 02:04:20;;;;;;;13.32;4.55;;;;;;;;;;6176353;23;20009;-44
2022/06/19 02:06:47;;;;;;;13.32;4.15;;;;;;;;;;6178610;23;20009;-45
2022/06/19 02:09:17;;;;;;;13.02;4.30;;;;;;;;;;6173307;23;20013;-43
2022/06/19 02:11:42;;;;;;;14.18;5.10;;;;;;;;;;6175570;23;20017;-47
2022/06/19 02:14:09;;;;;;;17.75;4.75;;;;;;;;;;6178185;23;20032;-45
2022/06/19 02:16:35;;;;;;;15.45;5.00;;;;;;;;;;6180489;23;20032;-47
2022/06/19 02:19:01;;;;;;;19.08;5.50;;;;;;;;;;6175356;23;20009;-45
2022/06/19 02:21:34;;;;;;;11.15;4.43;;;;;;;;;;6180119;23;20023;-46
2022/06/19 02:24:00;;;;;;;17.70;4.90;;;;;;;;;;6167502;23;20692;-43
2022/06/19 02:26:26;;;;;;;19.75;4.50;;;;;;;;;;6149894;23;20009;-45
2022/06/19 02:28:51;;;;;;;16.33;6.15;;;;;;;;;;6172873;23;20017;-45
2022/06/19 02:31:17;;;;;;;14.05;4.78;;;;;;;;;;6178292;23;20013;-45
2022/06/19 02:33:44;;;;;;;19.55;4.80;;;;;;;;;;6178155;23;20016;-44
2022/06/19 02:36:28;;;;;;;17.60;4.60;;;;;;;;;;6176992;23;20431;-46
2022/06/19 02:38:53;;;;;;;20.48;6.00;;;;;;;;;;6174129;23;20416;-45
2022/06/19 02:41:20;;;;;;;12.93;5.25;;;;;;;;;;6176396;23;20457;-45
2022/06/19 02:43:45;;;;;;;16.27;5.03;;;;;;;;;;6175879;23;20471;-44
2022/06/19 02:46:11;;;;;;;14.43;5.22;;;;;;;;;;6175308;23;20016;-43
2022/06/19 02:51:11;;;;;;;19.30;5.97;;;;;;;;;;6139251;23;20352;-59
2022/06/19 02:53:36;;;;;;;20.63;5.55;;;;;;;;;;6165521;23;20013;-58
2022/06/19 02:56:02;;;;;;;17.60;5.68;;;;;;;;;;6178019;23;20009;-58
2022/06/19 02:58:27;;;;;;;20.13;4.50;;;;;;;;;;6164685;23;20005;-58
2022/06/19 03:00:52;;;;;;;17.48;4.97;;;;;;;;;;6169130;23;20009;-58
2022/06/19 03:03:36;;;;;;;22.75;5.18;;;;;;;;;;6170841;23;20402;-58
2022/06/19 03:06:01;;;;;;;20.83;5.93;;;;;;;;;;6180645;23;20020;-58
2022/06/19 03:08:27;;;;;;;14.13;5.35;;;;;;;;;;6173457;23;20005;-59
2022/06/19 03:10:52;;;;;;;16.55;6.40;;;;;;;;;;6176205;23;20036;-58
2022/06/19 03:13:18;;;;;;;18.02;5.95;;;;;;;;;;6179178;23;20021;-58
2022/06/19 03:15:44;;;;;;;10.15;4.97;;;;;;;;;;6175674;23;20005;-58
2022/06/19 03:18:09;;;;;;;15.73;4.60;;;;;;;;;;6180430;23;20013;-55
2022/06/19 03:20:34;;;;;;;23.27;5.40;;;;;;;;;;6175756;23;20009;-57
2022/06/19 03:23:00;;;;;;;24.70;5.82;;;;;;;;;;6176454;23;20020;-58
2022/06/19 03:25:25;;;;;;;20.67;5.60;;;;;;;;;;6181196;23;20013;-58
2022/06/19 03:27:52;;;;;;;18.65;4.47;;;;;;;;;;6176630;23;20009;-58
2022/06/19 03:30:19;;;;;;;11.90;4.72;;;;;;;;;;6180183;23;20009;-57
2022/06/19 03:32:45;;;;;;;19.65;4.60;;;;;;;;;;6177838;23;20032;-58
2022/06/19 03:35:10;;;;;;;10.35;3.60;;;;;;;;;;6180102;23;20018;-58
2022/06/19 03:37:36;;;;;;;16.77;5.03;;;;;;;;;;6178556;23;20015;-58
2022/06/19 03:40:02;;;;;;;16.00;4.80;;;;;;;;;;6180818;23;20040;-58
2022/06/19 03:42:27;;;;;;;15.68;4.88;;;;;;;;;;6174971;23;20013;-58
2022/06/19 03:44:52;;;;;;;15.55;4.30;;;;;;;;;;6182872;23;20001;-58
2022/06/19 03:47:19;;;;;;;17.98;4.03;;;;;;;;;;6170979;23;20013;-58
2022/06/19 03:49:44;;;;;;;14.57;4.00;;;;;;;;;;6178404;23;20021;-58
2022/06/19 03:52:10;;;;;;;17.35;4.50;;;;;;;;;;6175732;23;20025;-56
2022/06/19 03:54:35;;;;;;;10.73;4.15;;;;;;;;;;6179371;23;20025;-58
2022/06/19 03:57:00;;;;;;;12.13;4.35;;;;;;;;;;6178442;23;20013;-58
2022/06/19 03:59:25;;;;;;;17.63;5.05;;;;;;;;;;6178101;23;20009;-58
2022/06/19 04:01:51;;;;;;;14.20;4.75;;;;;;;;;;6178405;23;20020;-58
2022/06/19 04:04:16;;;;;;;16.15;5.13;;;;;;;;;;6175262;23;20044;-58
2022/06/19 04:06:42;;;;;;;19.42;4.78;;;;;;;;;;6178372;23;20013;-58
2022/06/19 04:09:10;;;;;;;17.88;4.55;;;;;;;;;;6181452;23;20020;-58
2022/06/19 04:11:35;;;;;;;20.90;5.65;;;;;;;;;;6145621;23;20005;-58
2022/06/19 04:14:00;;;;;;;12.10;4.28;;;;;;;;;;6150105;23;20017;-59
2022/06/19 04:16:27;;;;;;;22.45;5.22;;;;;;;;;;6146952;23;20013;-59
2022/06/19 04:18:53;;;;;;;21.95;4.95;;;;;;;;;;6126316;23;20433;-58
2022/06/19 04:21:19;;;;;;;12.80;4.47;;;;;;;;;;6140309;23;20387;-59
2022/06/19 04:23:45;;;;;;;20.55;5.88;;;;;;;;;;6150946;23;20005;-58
2022/06/19 04:26:11;;;;;;;13.25;4.28;;;;;;;;;;6118907;23;20014;-58
2022/06/19 04:28:37;;;;;;;16.38;5.22;;;;;;;;;;6151820;23;20002;-59
2022/06/19 04:31:02;;;;;;;10.52;4.63;;;;;;;;;;6147162;23;20006;-59
2022/06/19 04:33:28;;;;;;;16.08;4.72;;;;;;;;;;6150224;23;20017;-58
2022/06/19 04:35:53;;;;;;;11.38;4.10;;;;;;;;;;6147435;23;20017;-59
2022/06/19 04:38:18;;;;;;;14.30;4.45;;;;;;;;;;6147663;23;20025;-59
2022/06/19 04:40:44;;;;;;;19.77;4.68;;;;;;;;;;6145605;23;20018;-58
2022/06/19 04:43:10;;;;;;;13.13;4.40;;;;;;;;;;6149697;23;20014;-57
2022/06/19 04:45:36;;;;;;;17.70;5.07;;;;;;;;;;6145615;23;20132;-58
2022/06/19 04:48:01;;;;;;;12.60;5.70;;;;;;;;;;6151058;23;20009;-58
2022/06/19 04:50:26;;;;;;;20.40;5.38;;;;;;;;;;6142782;23;20348;-58
2022/06/19 04:52:51;;;;;;;15.43;4.45;;;;;;;;;;6150396;23;20034;-58
2022/06/19 04:55:17;;;;;;;16.05;4.43;;;;;;;;;;6146406;23;20010;-58
2022/06/19 04:57:42;;;;;;;13.50;4.55;;;;;;;;;;6150240;23;20017;-58
2022/06/19 05:00:08;;;;;;;16.77;5.15;;;;;;;;;;6146787;23;20084;-59
2022/06/19 05:02:34;;;;;;;17.20;4.72;;;;;;;;;;6148873;23;20017;-58
2022/06/19 05:04:59;;;;;;;15.85;3.88;;;;;;;;;;6149177;23;20010;-58
2022/06/19 05:07:24;;;;;;;13.10;5.00;;;;;;;;;;6147460;23;20252;-58
2022/06/19 05:09:50;;;;;;;19.00;4.15;;;;;;;;;;6145121;23;20022;-58
2022/06/19 05:12:15;;;;;;;11.40;4.25;;;;;;;;;;6148859;23;20364;-58
2022/06/19 05:14:41;;;;;;;14.73;4.07;;;;;;;;;;6144554;23;20013;-57
2022/06/19 05:17:06;;;;;;;20.40;5.53;;;;;;;;;;6151045;23;20014;-58
2022/06/19 05:19:31;;;;;;;12.20;3.47;;;;;;;;;;6144911;23;20009;-58
2022/06/19 05:21:59;;;;;;;12.77;4.20;;;;;;;;;;6151153;23;20061;-58
2022/06/19 05:24:26;;;;;;;10.98;4.35;;;;;;;;;;6143399;23;20301;-58
2022/06/19 05:26:51;;;;;;;14.82;4.35;;;;;;;;;;6149741;23;20171;-57
2022/06/19 05:29:17;;;;;;;11.55;3.45;;;;;;;;;;6147045;23;20467;-57
2022/06/19 05:31:42;;;;;;;14.02;3.50;;;;;;;;;;6122732;23;20060;-57
2022/06/19 05:34:07;;;;;;;17.65;3.55;;;;;;;;;;6145046;23;20028;-58
2022/06/19 05:36:32;;;;;;;10.48;3.58;;;;;;;;;;6147414;23;20009;-58
2022/06/19 05:38:58;;;;;;;14.85;4.65;;;;;;;;;;6147281;23;20540;-58
2022/06/19 05:41:23;;;;;;;15.40;4.20;;;;;;;;;;6149242;23;20080;-58
2022/06/19 05:43:49;;;;;;;12.82;4.05;;;;;;;;;;6145777;23;20337;-58
2022/06/19 05:46:16;;;;;;;21.90;5.00;;;;;;;;;;6149504;23;20008;-57
2022/06/19 05:48:41;;;;;;;13.88;3.30;;;;;;;;;;6147185;23;20036;-58
2022/06/19 05:51:09;;;;;;;12.73;3.25;;;;;;;;;;6150081;23;20045;-58
2022/06/19 05:53:36;;;;;;;12.57;3.85;;;;;;;;;;6143330;23;20017;-58
2022/06/19 05:56:03;;;;;;;12.55;4.13;;;;;;;;;;6149070;23;20017;-58
2022/06/19 05:58:28;;;;;;;11.65;3.75;;;;;;;;;;6142962;23;20110;-58
2022/06/19 06:00:54;;;;;;;10.07;3.92;;;;;;;;;;6149790;23;20013;-58
2022/06/19 06:03:20;;;;;;;12.60;3.42;;;;;;;;;;6143318;23;20013;-58
2022/06/19 06:05:46;;;;;;;14.18;4.35;;;;;;;;;;6146680;23;20016;-58
2022/06/19 06:08:11;;;;;;;16.42;4.82;;;;;;;;;;6149580;23;20010;-58
2022/06/19 06:10:37;;;;;;;13.38;4.18;;;;;;;;;;6145823;23;20607;-58
2022/06/19 06:13:02;;;;;;;8.65;2.97;;;;;;;;;;6149974;23;20025;-58
2022/06/19 06:15:27;;;;;;;19.58;4.53;;;;;;;;;;6148981;23;20061;-58
2022/06/19 06:17:52;;;;;;;10.57;4.22;;;;;;;;;;6146688;23;20010;-58
2022/06/19 06:20:18;;;;;;;15.95;3.03;;;;;;;;;;6149348;23;20033;-58
2022/06/19 06:22:43;;;;;;;21.63;3.30;;;;;;;;;;6119649;23;20009;-58
2022/06/19 06:25:11;;;;;;;13.98;3.45;;;;;;;;;;6147999;23;20010;-57
2022/06/19 06:27:37;;;;;;;15.77;3.58;;;;;;;;;;6175430;23;20016;-58
2022/06/19 06:30:02;;;;;;;11.23;3.13;;;;;;;;;;6177247;23;20013;-58
2022/06/19 06:32:28;;;;;;;10.13;3.88;;;;;;;;;;6175704;23;20032;-58
2022/06/19 06:34:53;;;;;;;9.18;2.55;;;;;;;;;;6174024;23;20132;-58
2022/06/19 06:37:19;;;;;;;11.50;4.15;;;;;;;;;;6175429;23;20009;-58
2022/06/19 06:39:44;;;;;;;15.07;3.03;;;;;;;;;;6176061;23;20013;-58
2022/06/19 06:42:09;;;;;;;19.17;3.28;;;;;;;;;;6123930;23;20025;-53
2022/06/19 06:44:34;;;;;;;8.07;3.30;;;;;;;;;;6146159;23;20001;-58
2022/06/19 06:47:01;;;;;;;12.52;3.35;;;;;;;;;;6147493;23;20037;-58
2022/06/19 06:49:26;;;;;;;10.63;4.63;;;;;;;;;;6144065;23;20017;-58
2022/06/19 06:51:51;;;;;;;9.27;3.05;;;;;;;;;;6148408;23;20310;-58
2022/06/19 06:54:16;;;;;;;13.52;4.20;;;;;;;;;;6146389;23;20028;-57
2022/06/19 06:56:42;;;;;;;15.27;3.33;;;;;;;;;;6150304;23;20078;-58
2022/06/19 06:59:08;;;;;;;8.95;3.08;;;;;;;;;;6119420;23;20033;-58
2022/06/19 07:01:33;;;;;;;11.00;3.42;;;;;;;;;;6145765;23;20009;-58
2022/06/19 07:03:59;;;;;;;16.52;3.40;;;;;;;;;;6145259;23;20021;-58
2022/06/19 07:06:26;;;;;;;17.23;3.35;;;;;;;;;;6142126;23;20020;-58
2022/06/19 07:08:51;;;;;;;12.00;3.45;;;;;;;;;;6146066;23;20017;-59
2022/06/19 07:11:19;;;;;;;22.80;3.92;;;;;;;;;;6146567;23;20045;-58
2022/06/19 07:13:45;;;;;;;20.05;4.03;;;;;;;;;;6144556;23;20483;-58
2022/06/19 07:16:10;;;;;;;12.60;2.92;;;;;;;;;;6137435;23;20014;-57
2022/06/19 07:18:35;;;;;;;14.68;3.08;;;;;;;;;;6148252;23;20810;-58
2022/06/19 07:21:00;;;;;;;14.65;3.13;;;;;;;;;;6147820;23;20009;-59
2022/06/19 07:23:25;;;;;;;11.68;3.10;;;;;;;;;;6145950;23;20010;-58
2022/06/19 07:25:51;;;;;;;16.23;2.92;;;;;;;;;;6147866;23;20343;-58
2022/06/19 07:28:17;;;;;;;15.38;2.97;;;;;;;;;;6147688;23;20017;-58
2022/06/19 07:30:43;;;;;;;15.93;3.15;;;;;;;;;;6143895;23;20005;-59
2022/06/19 07:33:08;;;;;;;13.63;2.90;;;;;;;;;;6145214;23;20021;-59
2022/06/19 07:35:33;;;;;;;13.07;2.90;;;;;;;;;;6145355;23;20056;-59
2022/06/19 07:37:59;;;;;;;20.67;3.55;;;;;;;;;;6146274;23;20013;-58
2022/06/19 07:40:25;;;;;;;9.38;2.80;;;;;;;;;;6148469;23;20010;-59
2022/06/19 07:42:50;;;;;;;9.00;2.58;;;;;;;;;;6147100;23;20025;-58
2022/06/19 07:45:16;;;;;;;9.95;2.78;;;;;;;;;;6146998;23;20657;-59
2022/06/19 07:50:26;;;;;;;9.75;2.92;;;;;;;;;;6141724;23;20111;-59
2022/06/19 07:52:52;;;;;;;12.55;2.75;;;;;;;;;;6148334;23;20021;-58
2022/06/19 07:55:19;;;;;;;7.45;2.53;;;;;;;;;;6146465;23;20011;-58
2022/06/19 07:57:44;;;;;;;14.07;2.95;;;;;;;;;;6148569;23;20044;-58
2022/06/19 08:00:16;;;;;;;20.13;3.30;;;;;;;;;;6143278;23;20009;-56
2022/06/19 08:02:42;;;;;;;12.35;3.00;;;;;;;;;;6147163;23;20006;-58
2022/06/19 08:05:09;;;;;;;14.27;2.92;;;;;;;;;;6148872;23;20190;-59
2022/06/19 08:07:34;;;;;;;11.85;2.80;;;;;;;;;;6144555;23;20428;-59
2022/06/19 08:10:00;;;;;;;11.65;2.67;;;;;;;;;;6147014;23;20013;-59
2022/06/19 08:12:25;;;;;;;6.78;2.78;;;;;;;;;;6144941;23;20032;-59
2022/06/19 08:14:50;;;;;;;11.55;2.83;;;;;;;;;;6150245;23;20017;-58
2022/06/19 08:17:15;;;;;;;11.07;2.47;;;;;;;;;;6146479;23;20014;-58
2022/06/19 08:19:41;;;;;;;11.05;2.53;;;;;;;;;;6150440;23;20126;-58
2022/06/19 08:22:06;;;;;;;7.78;2.55;;;;;;;;;;6143132;23;20020;-59
2022/06/19 08:24:31;;;;;;;9.85;2.38;;;;;;;;;;6146303;23;20017;-58
2022/06/19 08:27:00;;;;;;;12.25;2.80;;;;;;;;;;6148074;23;20350;-58
2022/06/19 08:29:26;;;;;;;14.10;3.13;;;;;;;;;;6147913;23;20076;-60
2022/06/19 08:31:51;;;;;;;5.57;2.38;;;;;;;;;;6148496;23;20468;-58
2022/06/19 08:34:16;;;;;;;9.02;2.63;;;;;;;;;;6145975;23;20021;-58
2022/06/19 08:36:41;;;;;;;7.03;1.65;;;;;;;;;;6148779;23;20054;-59
2022/06/19 08:39:10;;;;;;;3.30;1.70;;;;;;;;;;6143290;23;20013;-59
2022/06/19 08:41:42;;;;;;;7.78;2.30;;;;;;;;;;6129069;23;20340;-58
2022/06/19 08:44:10;;;;;;;8.20;2.20;;;;;;;;;;6141732;23;20013;-59
2022/06/19 08:46:47;;;;;;;5.85;2.58;;;;;;;;;;6175443;23;20088;-58
2022/06/19 08:49:13;;;;;;;10.88;2.65;;;;;;;;;;6174537;23;20103;-58
2022/06/19 08:51:49;;;;;;;11.50;3.88;;;;;;;;;;6178535;23;20025;-59
2022/06/19 08:54:26;;;;;;;8.80;3.17;;;;;;;;;;6177656;23;20017;-58
2022/06/19 08:56:51;;;;;;;13.18;4.57;;;;;;;;;;6178030;23;20068;-58
2022/06/19 08:59:24;;;;;;;13.63;4.63;;;;;;;;;;6177774;23;20009;-60
2022/06/19 09:01:52;;;;;;;7.45;4.18;;;;;;;;;;6178637;23;20689;-53
2022/06/19 09:07:02;;;;;;;11.05;5.00;;;;;;;;;;6177962;23;20024;-59
2022/06/19 09:09:27;;;;;;;7.82;4.20;;;;;;;;;;6178884;23;20013;-59
2022/06/19 09:11:58;;;;;;;17.23;5.03;;;;;;;;;;6174531;23;20009;-59
2022/06/19 09:14:36;;;;;;;11.93;4.75;;;;;;;;;;6179752;23;20254;-57
2022/06/19 09:17:04;;;;;;;10.15;4.18;;;;;;;;;;6176705;23;20501;-58
2022/06/19 09:19:49;;;;;;;13.32;4.75;;;;;;;;;;6177072;23;20017;-58
2022/06/19 09:22:25;;;;;;;12.95;4.85;;;;;;;;;;6179490;23;20081;-57
2022/06/19 09:25:16;;;;;;;8.98;4.00;;;;;;;;;;6174818;23;20019;-58
2022/06/19 09:28:05;;;;;;;10.88;4.90;;;;;;;;;;6120799;23;20021;-58
2022/06/19 09:30:35;;;;;;;9.73;2.95;;;;;;;;;;6096858;23;20061;-58
2022/06/19 09:33:05;;;;;;;9.57;3.50;;;;;;;;;;6174905;23;20055;-58
2022/06/19 09:35:30;;;;;;;10.57;2.60;;;;;;;;;;6177318;23;20073;-57
2022/06/19 09:37:58;;;;;;;5.20;2.43;;;;;;;;;;6174276;23;20020;-59
2022/06/19 09:40:27;;;;;;;7.30;2.75;;;;;;;;;;6177090;23;20235;-58
2022/06/19 09:42:56;;;;;;;7.88;2.25;;;;;;;;;;6176134;23;20024;-58
2022/06/19 09:45:24;;;;;;;7.65;2.33;;;;;;;;;;6176333;23;20005;-59
2022/06/19 09:47:52;;;;;;;6.35;2.50;;;;;;;;;;6176555;23;20498;-58
2022/06/19 09:50:25;;;;;;;6.53;2.35;;;;;;;;;;6177133;23;20021;-59
2022/06/19 09:52:54;;;;;;;7.85;2.38;;;;;;;;;;6176668;23;20052;-58
2022/06/19 09:55:24;;;;;;;5.57;2.53;;;;;;;;;;6175498;23;20067;-59
2022/06/19 09:57:52;;;;;;;6.95;2.85;;;;;;;;;;6179061;23;20170;-58
2022/06/19 10:00:24;;;;;;;7.85;2.40;;;;;;;;;;6175443;23;20013;-59
2022/06/19 10:02:54;;;;;;;5.32;2.67;;;;;;;;;;6175115;23;20358;-59
2022/06/19 10:05:43;;;;;;;4.55;2.65;;;;;;;;;;6175485;23;20020;-60
2022/06/19 10:08:27;;;;;;;6.83;3.63;;;;;;;;;;6161308;23;20060;-59
2022/06/19 10:11:02;;;;;;;8.02;3.17;;;;;;;;;;6137361;23;20017;-60
2022/06/19 10:13:39;;;;;;;9.27;2.97;;;;;;;;;;6146137;23;20060;-59
2022/06/19 10:16:13;;;;;;;6.30;3.22;;;;;;;;;;6140339;23;20022;-59
2022/06/19 10:18:39;;;;;;;6.80;2.88;;;;;;;;;;6145147;23;20061;-60
2022/06/19 10:22:13;;;;;;;7.18;2.67;;;;;;;;;;6143620;23;20040;-59
2022/06/19 10:24:01;;;;;;;6.68;2.72;;;;;;;;;;6170152;23;20468;-59
2022/06/19 10:26:37;;;;;;;3.78;2.40;;;;;;;;;;6173448;23;20012;-60
2022/06/19 10:29:24;;;;;;;8.05;2.85;;;;;;;;;;6172649;23;20408;-59
2022/06/19 10:32:09;;;;;;;7.65;2.97;;;;;;;;;;6172628;23;20372;-56
2022/06/19 10:34:57;;;;;;;5.35;2.33;;;;;;;;;;6172219;23;20048;-60
2022/06/19 10:37:22;;;;;;;6.75;2.45;;;;;;;;;;6170288;23;20005;-60
2022/06/19 10:40:06;;;;;;;8.75;2.50;;;;;;;;;;6172831;23;20020;-60
2022/06/19 10:42:39;;;;;;;8.68;2.45;;;;;;;;;;6172304;23;20013;-60
2022/06/19 10:45:24;;;;;;;7.22;2.67;;;;;;;;;;6172526;23;20024;-60
2022/06/19 10:47:53;;;;;;;6.47;2.65;;;;;;;;;;6122538;23;20457;-60
2022/06/19 10:50:23;;;;;;;8.05;2.50;;;;;;;;;;6138593;23;20034;-61
2022/06/19 10:52:53;;;;;;;7.00;2.42;;;;;;;;;;6145035;23;20100;-60
2022/06/19 10:55:27;;;;;;;6.43;2.88;;;;;;;;;;6133865;23;20980;-59
2022/06/19 10:58:13;;;;;;;4.75;2.20;;;;;;;;;;6137803;23;20013;-60
2022/06/19 11:00:38;;;;;;;4.30;2.28;;;;;;;;;;6113779;23;20036;-59
2022/06/19 11:05:53;;;;;;;5.93;2.70;;;;;;;;;;6171663;23;20071;-59
2022/06/19 11:08:19;;;;;;;5.82;2.20;;;;;;;;;;6175898;23;20069;-59
2022/06/19 11:10:47;;;;;;;5.70;2.22;;;;;;;;;;6174242;23;20465;-60
2022/06/19 11:13:12;;;;;;;6.47;2.22;;;;;;;;;;6178176;23;20021;-60
2022/06/19 11:16:01;;;;;;;3.70;2.22;;;;;;;;;;6175806;23;20013;-59
2022/06/19 11:18:26;;;;;;;6.97;2.53;;;;;;;;;;6159004;23;20009;-60
2022/06/19 11:21:06;;;;;;;7.22;2.17;;;;;;;;;;6170083;23;20039;-58
2022/06/19 11:23:37;;;;;;;3.42;1.92;;;;;;;;;;6149455;23;20013;-59
2022/06/19 11:26:02;;;;;;;5.90;2.38;;;;;;;;;;6174920;23;20047;-59
2022/06/19 11:28:39;;;;;;;6.57;2.57;;;;;;;;;;6172777;23;20017;-60
2022/06/19 11:31:13;;;;;;;11.32;2.00;;;;;;;;;;6176205;23;20238;-60
2022/06/19 11:33:38;;;;;;;5.18;3.60;;;;;;;;;;6168491;23;20051;-59
2022/06/19 11:36:06;;;;;;;4.35;2.30;;;;;;;;;;6177385;23;20092;-60
2022/06/19 11:38:36;;;;;;;6.05;2.63;;;;;;;;;;6170394;23;20020;-59
2022/06/19 11:41:13;;;;;;;7.53;3.28;;;;;;;;;;6174611;23;20075;-59
2022/06/19 11:43:39;;;;;;;10.15;3.42;;;;;;;;;;6144959;23;20012;-60
2022/06/19 11:46:15;;;;;;;4.43;2.42;;;;;;;;;;6176911;23;20044;-59
2022/06/19 11:48:41;;;;;;;9.38;2.17;;;;;;;;;;6173471;23;20009;-60
2022/06/19 11:51:15;;;;;;;13.02;2.40;;;;;;;;;;6174810;23;20095;-60
2022/06/19 11:53:42;;;;;;;2.97;2.13;;;;;;;;;;6174137;23;20028;-59
2022/06/19 11:56:15;;;;;;;6.47;1.83;;;;;;;;;;6179578;23;20013;-60
2022/06/19 11:58:42;;;;;;;4.22;2.20;;;;;;;;;;6174978;23;20016;-60
2022/06/19 12:01:17;;;;;;;7.03;2.42;;;;;;;;;;6181428;23;20016;-60
2022/06/19 12:03:43;;;;;;;7.07;3.45;;;;;;;;;;6139677;23;20009;-60
2022/06/19 12:06:09;;;;;;;6.65;3.70;;;;;;;;;;6149549;23;20010;-60
2022/06/19 12:08:37;;;;;;;5.82;3.58;;;;;;;;;;6143506;23;20018;-60
2022/06/19 12:11:04;;;;;;;9.80;4.07;;;;;;;;;;6148166;23;20032;-60
2022/06/19 12:13:31;;;;;;;7.50;3.40;;;;;;;;;;6122115;23;20033;-61
2022/06/19 12:16:02;;;;;;;6.05;3.03;;;;;;;;;;6147960;23;20017;-60
2022/06/19 12:18:28;;;;;;;6.40;3.00;;;;;;;;;;6145630;23;20013;-61
2022/06/19 12:21:01;;;;;;;4.53;2.85;;;;;;;;;;6146101;23;20056;-60
2022/06/19 12:23:28;;;;;;;7.65;3.03;;;;;;;;;;6142709;23;20009;-61
2022/06/19 12:25:58;;;;;;;4.47;2.70;;;;;;;;;;6146969;23;20013;-60
2022/06/19 12:28:23;;;;;;;;;;;;;;;;;;6149877;23;20371;-60
2022/06/19 12:31:08;;;;;;;7.50;3.07;;;;;;;;;;6146892;23;20177;-59
2022/06/19 12:33:42;;;;;;;6.90;2.90;;;;;;;;;;6147281;23;20240;-60
2022/06/19 12:36:15;;;;;;;4.10;2.25;;;;;;;;;;6139579;23;20037;-60
2022/06/19 12:38:41;;;;;;;6.93;2.50;;;;;;;;;;6169279;23;20040;-60
2022/06/19 12:41:26;;;;;;;5.25;2.15;;;;;;;;;;6177139;23;20013;-60
2022/06/19 12:44:03;;;;;;;4.50;2.15;;;;;;;;;;6168038;23;20021;-60
2022/06/19 12:46:37;;;;;;;4.88;2.28;;;;;;;;;;6176034;23;20013;-59
2022/06/19 12:49:08;;;;;;;3.53;2.25;;;;;;;;;;6147441;23;20013;-60
2022/06/19 12:51:54;;;;;;;2.75;1.73;;;;;;;;;;6171525;23;20036;-59
2022/06/19 12:54:25;;;;;;;7.07;2.20;;;;;;;;;;6172424;23;20737;-59
2022/06/19 12:57:06;;;;;;;3.78;1.85;;;;;;;;;;6170513;23;20024;-59
2022/06/19 12:59:47;;;;;;;4.70;2.20;;;;;;;;;;6174155;23;20462;-60
2022/06/19 13:02:21;;;;;;;3.20;2.10;;;;;;;;;;6165625;23;20084;-59
2022/06/19 13:05:05;;;;;;;4.78;2.05;;;;;;;;;;6124096;23;20076;-59
2022/06/19 13:07:49;;;;;;;3.92;2.00;;;;;;;;;;6144708;23;20044;-60
2022/06/19 13:10:23;;;;;;;3.60;1.77;;;;;;;;;;6147559;23;20014;-59
2022/06/19 13:12:56;;;;;;;3.33;1.80;;;;;;;;;;6147402;23;20040;-60
2022/06/19 13:15:41;;;;;;;7.60;2.00;;;;;;;;;;6147088;23;20033;-61
2022/06/19 13:18:16;;;;;;;3.78;1.77;;;;;;;;;;6136913;23;20048;-61
2022/06/19 13:20:46;;;;;;;3.28;1.63;;;;;;;;;;6171912;23;20031;-61
2022/06/19 13:23:15;;;;;;;5.22;2.00;;;;;;;;;;6178196;23;20048;-61
2022/06/19 13:25:52;;;;;;;5.50;1.60;;;;;;;;;;6175021;23;20048;-61
2022/06/19 13:28:31;;;;;;;4.45;1.90;;;;;;;;;;6178172;23;20234;-61
2022/06/19 13:31:15;;;;;;;6.78;2.60;;;;;;;;;;6181801;23;20024;-61
2022/06/19 13:33:53;;;;;;;4.30;2.05;;;;;;;;;;6128246;23;20077;-61
2022/06/19 13:36:21;;;;;;;4.47;1.77;;;;;;;;;;6148235;23;20426;-61
2022/06/19 13:38:49;;;;;;;4.55;1.92;;;;;;;;;;6142871;23;20093;-61
2022/06/19 13:41:27;;;;;;;4.43;1.98;;;;;;;;;;6148106;23;20325;-61
2022/06/19 13:43:55;;;;;;;5.72;1.45;;;;;;;;;;6148715;23;20016;-61
2022/06/19 13:46:24;;;;;;;6.20;1.40;;;;;;;;;;6144911;23;20068;-61
2022/06/19 13:48:49;;;;;;;5.63;1.73;;;;;;;;;;6150165;23;20312;-60
2022/06/19 13:51:14;;;;;;;2.97;1.55;;;;;;;;;;6143679;23;20036;-61
2022/06/19 13:53:52;;;;;;;4.30;1.67;;;;;;;;;;6148858;23;20118;-61
2022/06/19 13:56:22;;;;;;;3.80;1.48;;;;;;;;;;6141585;23;20313;-61
2022/06/19 13:59:01;;;;;;;16.02;2.63;;;;;;;;;;6143514;23;20012;-60
2022/06/19 14:01:38;;;;;;;5.28;1.48;;;;;;;;;;6148089;23;20009;-60
2022/06/19 14:06:56;;;;;;;7.15;1.98;;;;;;;;;;6179499;23;20039;-60
2022/06/19 14:09:27;;;;;;;11.65;2.30;;;;;;;;;;6178132;23;20091;-60
2022/06/19 14:12:06;;;;;;;8.75;2.50;;;;;;;;;;6177451;23;20084;-60
2022/06/19 14:14:38;;;;;;;4.18;2.08;;;;;;;;;;6172813;23;20044;-60
2022/06/19 14:17:03;;;;;;;5.00;1.92;;;;;;;;;;6180833;23;20009;-60
2022/06/19 14:19:43;;;;;;;3.90;2.10;;;;;;;;;;6175367;23;20503;-60
2022/06/19 14:22:13;;;;;;;3.78;1.70;;;;;;;;;;6177821;23;20069;-50
2022/06/19 14:24:57;;;;;;;5.53;2.25;;;;;;;;;;6173952;23;20045;-60
2022/06/19 14:27:43;;;;;;;2.92;1.90;;;;;;;;;;6174767;23;20028;-60
2022/06/19 14:30:13;;;;;;;3.58;2.13;;;;;;;;;;6177933;23;20013;-60
2022/06/19 14:32:41;;;;;;;7.53;2.05;;;;;;;;;;6173339;23;20052;-60
2022/06/19 14:35:06;;;;;;;2.65;1.38;;;;;;;;;;6152899;23;20037;-60
2022/06/19 14:37:33;;;;;;;3.17;1.70;;;;;;;;;;6171612;23;20024;-60
2022/06/19 14:40:04;;;;;;;4.63;1.55;;;;;;;;;;6176982;23;20382;-60
2022/06/19 14:42:47;;;;;;;5.78;1.27;;;;;;;;;;6176619;23;20025;-61
2022/06/19 14:45:13;;;;;;;5.43;1.60;;;;;;;;;;6176141;23;20036;-60
2022/06/19 14:47:47;;;;;;;6.20;1.67;;;;;;;;;;6177839;23;20013;-60
2022/06/19 14:50:37;;;;;;;4.38;1.55;;;;;;;;;;6171308;23;20032;-61
2022/06/19 14:53:18;;;;;;;5.22;1.52;;;;;;;;;;6099531;23;20024;-60
2022/06/19 14:55:52;;;;;;;4.40;1.83;;;;;;;;;;6159880;23;20080;-60
2022/06/19 14:58:20;;;;;;;4.15;1.35;;;;;;;;;;6147636;23;20145;-60
2022/06/19 15:00:50;;;;;;;3.83;1.70;;;;;;;;;;6148089;23;20023;-60